Accueil
METAR-TAF:

METAR-TAF

Aéroports :

Aéroport international Mallam Aminu Kano

Kano, Nigeria

latitude: 12-03N, longitude: 008-32E, altitude: 476 m

Observation

Le bulletin a été fait il y a 1 heure et 15 minutes, à 06:00 UTC
Vent calme
Température 14°C
Humidité 47%
Pression 1019 hPa
Visibilité: 6000 m

METAR: DNKN 180600Z 00000KT 6000 NSC 14/03 Q1019 NOSIG

Heure: 08:15 (07:15 UTC)

Prévision

Le bulletin a été fait il y a 2 heures et 15 minutes, à 05:00 UTC
Prévision valable du 18 à 06 UTC au 19 à 12 UTC
Vent 10 kt de nord-est
Visibilité: 1500 m
brume sèche
Temporairement
du 18 à 06 UTC au 18 à 12 UTC
Visibilité: 0600 m
poussière généralisée
Evoluant progressivement
du 18 à 15 UTC au 18 à 17 UTC
Visibilité: 7000 m

TAF: DNKN 180500Z 1806/1912 05010KT 1500 HZ NSC TEMPO 1806/1812 0600 DU BECMG 1815/1817 7000 NSW

Observations et prévisions météorologiques de plus de 4000 aéroports (messages METAR et TAF).

Les stations disponibles sont représentées par des disques jaunes et rouges sur la carte.

Passer la souris dessus pour voir le nom de la station.

Cliquer dessus pour voir les observations et prévisions météorologiques.

Pour changer de carte: cliquez sur les boutons verts avec une croix noire pour zoomer, sur le bouton vert avec un tiret pour effectuer un zoom arrière, ou sur les flèches vertes pour les cartes adjacentes.


METAR-TAF: